Time;durP1;ratioP1;P1;durP2;ratioP2;P2;SDS_P1;SDS_P2;PMS_P1;PMS_P2;Temp;Humidity;BMP_temperature;BMP_pressure;BME280_temperature;BME280_humidity;BME280_pressure;Samples;Min_cycle;Max_cycle;Signal;HPM_P1;HPM_P2
2023/06/14 00:00:56;;;;;;;;;;;;;;;17.63;55.21;100156.38;5428856;32;34876;-66
2023/06/14 00:03:58;;;;;;;;;;;;;;;17.57;55.12;100156.81;5424479;32;35090;-66
2023/06/14 00:07:01;;;;;;;;;;;;;;;16.88;57.15;100150.22;5420907;32;35569;-66
2023/06/14 00:10:04;;;;;;;;;;;;;;;16.79;57.74;100159.66;5425844;32;34269;-65
2023/06/14 00:13:07;;;;;;;;;;;;;;;16.90;57.82;100162.41;5424123;32;34923;-65
2023/06/14 00:16:09;;;;;;;;;;;;;;;17.37;56.38;100157.41;5427434;32;35096;-68
2023/06/14 00:19:11;;;;;;;;;;;;;;;16.72;58.38;100163.69;5426083;32;34984;-66
2023/06/14 00:22:13;;;;;;;;;;;;;;;17.04;57.56;100162.31;5422994;32;35711;-67
2023/06/14 00:25:15;;;;;;;;;;;;;;;17.04;56.90;100151.69;5411207;32;35014;-67
2023/06/14 00:28:30;;;;;;;;;;;;;;;16.59;58.95;100168.94;5424914;32;34877;-67
2023/06/14 00:31:32;;;;;;;;;;;;;;;16.52;59.25;100173.81;5426705;32;34346;-66
2023/06/14 00:34:34;;;;;;;;;;;;;;;16.14;60.60;100172.84;5424531;32;34287;-66
2023/06/14 00:37:36;;;;;;;;;;;;;;;16.59;59.25;100178.69;5428090;32;34538;-66
2023/06/14 00:40:38;;;;;;;;;;;;;;;16.73;58.63;100173.34;5425467;32;34775;-65
2023/06/14 00:43:42;;;;;;;;;;;;;;;16.67;59.10;100174.56;5427237;32;35318;-66
2023/06/14 00:46:45;;;;;;;;;;;;;;;16.83;58.47;100173.56;5427777;32;34371;-67
2023/06/14 00:49:47;;;;;;;;;;;;;;;16.18;60.64;100172.53;5396553;32;35089;-68
2023/06/14 00:52:50;;;;;;;;;;;;;;;16.04;61.57;100182.34;5396785;32;34203;-66
2023/06/14 00:55:52;;;;;;;;;;;;;;;16.46;60.23;100176.00;5424433;32;34720;-67
2023/06/14 00:58:55;;;;;;;;;;;;;;;16.18;61.25;100185.81;5429354;32;34685;-67
2023/06/14 01:01:56;;;;;;;;;;;;;;;16.57;60.18;100176.16;5409943;32;34401;-67
2023/06/14 01:05:00;;;;;;;;;;;;;;;17.33;57.71;100178.03;5426432;32;34865;-68
2023/06/14 01:08:06;;;;;;;;;;;;;;;17.62;56.79;100170.62;5421836;32;34540;-67
2023/06/14 01:11:26;;;;;;;;;;;;;;;16.83;59.42;100169.09;5408899;32;36245;-65
2023/06/14 01:14:30;;;;;;;;;;;;;;;16.62;59.88;100174.03;5412764;32;35147;-67
2023/06/14 01:17:32;;;;;;;;;;;;;;;16.90;58.68;100166.88;5424457;32;35035;-65
2023/06/14 01:20:37;;;;;;;;;;;;;;;16.31;61.50;100172.59;5409518;32;35262;-66
2023/06/14 01:23:40;;;;;;;;;;;;;;;15.89;63.21;100171.78;5426241;32;35539;-66
2023/06/14 01:26:45;;;;;;;;;;;;;;;15.98;63.45;100170.34;5431327;32;35435;-66
2023/06/14 01:29:48;;;;;;;;;;;;;;;16.06;63.11;100159.25;5425767;32;34845;-67
2023/06/14 01:32:50;;;;;;;;;;;;;;;16.47;61.41;100169.75;5425266;32;34268;-66
2023/06/14 01:35:52;;;;;;;;;;;;;;;16.19;62.59;100160.97;5415393;32;36717;-68
2023/06/14 01:38:56;;;;;;;;;;;;;;;16.10;63.40;100172.22;5428062;32;35052;-67
2023/06/14 01:41:58;;;;;;;;;;;;;;;16.79;60.90;100173.75;5425909;32;34905;-67
2023/06/14 01:45:00;;;;;;;;;;;;;;;15.92;63.68;100178.69;5421532;32;34666;-66
2023/06/14 01:48:02;;;;;;;;;;;;;;;15.89;64.66;100171.78;5411992;32;35141;-65
2023/06/14 01:51:04;;;;;;;;;;;;;;;15.72;64.56;100174.69;5403566;32;35030;-66
2023/06/14 01:54:06;;;;;;;;;;;;;;;16.36;62.82;100177.56;5393391;32;35060;-65
2023/06/14 01:57:09;;;;;;;;;;;;;;;16.04;63.55;100180.56;5413249;32;34984;-65
2023/06/14 02:00:12;;;;;;;;;;;;;;;16.83;60.83;100179.72;5408752;32;34624;-65
2023/06/14 02:03:15;;;;;;;;;;;;;;;16.10;63.23;100182.81;5413156;32;36858;-68
2023/06/14 02:06:17;;;;;;;;;;;;;;;15.97;63.88;100179.22;5396010;32;35235;-66
2023/06/14 02:09:19;;;;;;;;;;;;;;;16.95;60.71;100178.03;5420546;32;35474;-67
2023/06/14 02:12:21;;;;;;;;;;;;;;;17.39;58.83;100185.56;5424632;32;35345;-65
2023/06/14 02:15:23;;;;;;;;;;;;;;;16.90;60.46;100188.97;5422162;32;35356;-67
2023/06/14 02:18:25;;;;;;;;;;;;;;;16.39;62.37;100191.47;5431153;32;34810;-66
2023/06/14 02:21:27;;;;;;;;;;;;;;;16.16;63.10;100192.13;5425093;32;35013;-65
2023/06/14 02:24:29;;;;;;;;;;;;;;;15.73;65.25;100189.63;5430850;32;35002;-66
2023/06/14 02:27:31;;;;;;;;;;;;;;;16.37;63.33;100184.59;5427766;32;34390;-66
2023/06/14 02:30:33;;;;;;;;;;;;;;;16.60;61.70;100178.59;5426363;32;35555;-67
2023/06/14 02:33:35;;;;;;;;;;;;;;;16.09;63.94;100190.84;5429582;32;35317;-65
2023/06/14 02:36:41;;;;;;;;;;;;;;;16.17;63.63;100189.41;5426285;32;35404;-66
2023/06/14 02:39:43;;;;;;;;;;;;;;;16.89;61.17;100184.62;5428538;32;34417;-68
2023/06/14 02:42:45;;;;;;;;;;;;;;;17.26;59.61;100185.59;5430842;32;35029;-67
2023/06/14 02:45:47;;;;;;;;;;;;;;;17.19;59.68;100181.62;5425543;32;34832;-68
2023/06/14 02:48:49;;;;;;;;;;;;;;;16.93;60.71;100178.12;5427773;32;34554;-66
2023/06/14 02:51:51;;;;;;;;;;;;;;;17.08;60.12;100176.25;5426964;32;35654;-65
2023/06/14 02:54:54;;;;;;;;;;;;;;;16.16;63.18;100190.34;5429860;32;34400;-67
2023/06/14 02:57:55;;;;;;;;;;;;;;;16.67;61.68;100181.66;5411791;32;34674;-68
2023/06/14 03:00:57;;;;;;;;;;;;;;;15.81;65.15;100179.37;5429342;32;34202;-68
2023/06/14 03:04:05;;;;;;;;;;;;;;;16.20;63.33;100177.75;5426730;32;35675;-68
2023/06/14 03:07:10;;;;;;;;;;;;;;;16.33;62.72;100177.78;5409286;32;35262;-68
2023/06/14 03:10:13;;;;;;;;;;;;;;;16.06;64.42;100183.94;5427207;32;35428;-66
2023/06/14 03:13:15;;;;;;;;;;;;;;;16.01;64.60;100171.94;5410296;32;35501;-69
2023/06/14 03:16:22;;;;;;;;;;;;;;;16.30;63.44;100184.16;5415297;32;35544;-66
2023/06/14 03:19:25;;;;;;;;;;;;;;;15.76;64.52;100178.81;5411613;32;34552;-70
2023/06/14 03:22:28;;;;;;;;;;;;;;;15.59;66.51;100176.37;5416085;32;34754;-66
2023/06/14 03:25:30;;;;;;;;;;;;;;;15.58;66.45;100179.94;5410027;32;35468;-68
2023/06/14 03:28:32;;;;;;;;;;;;;;;16.06;64.78;100181.28;5426419;32;35552;-67
2023/06/14 03:31:34;;;;;;;;;;;;;;;15.96;64.94;100185.47;5413713;32;34629;-67
2023/06/14 03:34:38;;;;;;;;;;;;;;;15.79;66.18;100183.09;5410267;32;34597;-67
2023/06/14 03:37:40;;;;;;;;;;;;;;;15.94;65.26;100185.59;5428667;32;34942;-65
2023/06/14 03:40:44;;;;;;;;;;;;;;;16.22;63.96;100184.62;5421762;32;33976;-66
2023/06/14 03:43:46;;;;;;;;;;;;;;;16.60;62.79;100186.53;5429166;32;34338;-67
2023/06/14 03:46:48;;;;;;;;;;;;;;;16.91;61.07;100195.12;5424937;32;36409;-68
2023/06/14 03:49:49;;;;;;;;;;;;;;;15.84;65.39;100199.50;5427326;32;34609;-68
2023/06/14 03:52:52;;;;;;;;;;;;;;;16.19;64.37;100195.44;5428356;32;34974;-66
2023/06/14 03:55:54;;;;;;;;;;;;;;;16.95;60.92;100188.66;5415075;32;34751;-65
2023/06/14 03:58:58;;;;;;;;;;;;;;;16.39;62.35;100188.84;5429706;32;35641;-66
2023/06/14 04:02:00;;;;;;;;;;;;;;;16.12;63.79;100199.47;5427185;32;35557;-66
2023/06/14 04:05:02;;;;;;;;;;;;;;;16.59;62.24;100200.75;5428565;32;34618;-67
2023/06/14 04:08:08;;;;;;;;;;;;;;;16.38;62.94;100195.09;5423256;32;35013;-67
2023/06/14 04:11:11;;;;;;;;;;;;;;;16.23;64.27;100196.97;5425108;32;35967;-65
2023/06/14 04:14:12;;;;;;;;;;;;;;;16.04;64.88;100203.56;5430014;32;34274;-65
2023/06/14 04:17:14;;;;;;;;;;;;;;;17.69;59.54;100193.16;5416827;32;35016;-65
2023/06/14 04:20:16;;;;;;;;;;;;;;;15.88;64.06;100209.81;5417750;32;34920;-66
2023/06/14 04:23:18;;;;;;;;;;;;;;;16.85;62.54;100214.97;5421584;32;34321;-68
2023/06/14 04:26:23;;;;;;;;;;;;;;;16.24;63.88;100219.87;5427439;32;34750;-65
2023/06/14 04:29:29;;;;;;;;;;;;;;;16.40;62.88;100210.91;5412345;32;35492;-64
2023/06/14 04:32:33;;;;;;;;;;;;;;;17.11;60.82;100205.22;5411075;32;34853;-69
2023/06/14 04:35:37;;;;;;;;;;;;;;;17.07;60.16;100214.38;5428807;32;34352;-67
2023/06/14 04:38:39;;;;;;;;;;;;;;;17.53;59.15;100212.00;5410112;32;34815;-67
2023/06/14 04:41:41;;;;;;;;;;;;;;;18.38;56.20;100207.63;5428903;32;34415;-66
2023/06/14 04:44:43;;;;;;;;;;;;;;;18.79;55.08;100206.34;5422344;32;35750;-66
2023/06/14 04:47:46;;;;;;;;;;;;;;;19.72;51.41;100203.56;5421084;32;35038;-65
2023/06/14 04:50:48;;;;;;;;;;;;;;;19.40;51.41;100206.09;5426405;32;36061;-67
2023/06/14 04:53:50;;;;;;;;;;;;;;;19.15;52.25;100212.47;5429355;32;34382;-66
2023/06/14 04:56:53;;;;;;;;;;;;;;;19.83;50.65;100208.03;5427475;32;34954;-67
2023/06/14 04:59:55;;;;;;;;;;;;;;;20.08;49.71;100214.88;5430237;32;34368;-67
2023/06/14 05:02:57;;;;;;;;;;;;;;;19.45;51.58;100220.75;5430374;32;35610;-67
2023/06/14 05:06:00;;;;;;;;;;;;;;;20.93;47.65;100225.62;5409097;32;34331;-67
2023/06/14 05:09:02;;;;;;;;;;;;;;;21.44;46.18;100224.84;5426279;32;34762;-68
2023/06/14 05:12:04;;;;;;;;;;;;;;;20.92;47.37;100216.75;5428089;32;35688;-66
2023/06/14 05:15:08;;;;;;;;;;;;;;;22.36;43.86;100213.03;5425505;32;34780;-67
2023/06/14 05:18:10;;;;;;;;;;;;;;;22.21;43.76;100213.56;5416136;32;35442;-66
2023/06/14 05:21:12;;;;;;;;;;;;;;;22.00;44.79;100211.81;5413771;32;35091;-66
2023/06/14 05:24:14;;;;;;;;;;;;;;;22.62;43.25;100212.47;5409429;32;34691;-67
2023/06/14 05:27:17;;;;;;;;;;;;;;;23.51;41.13;100210.34;5421778;32;34870;-66
2023/06/14 05:30:19;;;;;;;;;;;;;;;22.39;43.05;100214.56;5422024;32;35272;-68
2023/06/14 05:33:21;;;;;;;;;;;;;;;21.28;45.81;100222.63;5428899;32;34181;-66
2023/06/14 05:36:23;;;;;;;;;;;;;;;22.96;42.44;100212.88;5419477;32;35057;-63
2023/06/14 05:39:25;;;;;;;;;;;;;;;21.60;45.64;100217.19;5427606;32;32053;-67
2023/06/14 05:42:27;;;;;;;;;;;;;;;23.80;40.39;100206.72;5421593;32;34520;-62
2023/06/14 05:45:29;;;;;;;;;;;;;;;24.49;38.68;100211.50;5421942;32;34512;-62
2023/06/14 05:48:31;;;;;;;;;;;;;;;21.57;44.69;100199.56;5419893;32;34144;-62
2023/06/14 05:51:34;;;;;;;;;;;;;;;23.35;41.29;100208.28;5418358;32;34848;-74
2023/06/14 05:54:38;;;;;;;;;;;;;;;24.39;39.40;100206.19;5408435;32;35470;-73
2023/06/14 05:57:41;;;;;;;;;;;;;;;23.84;40.33;100210.78;5420671;32;34371;-66
2023/06/14 06:00:43;;;;;;;;;;;;;;;23.74;41.16;100219.72;5417504;32;34313;-69
2023/06/14 06:03:47;;;;;;;;;;;;;;;24.81;38.44;100217.16;5409991;32;35263;-68
2023/06/14 06:06:52;;;;;;;;;;;;;;;23.32;41.11;100221.13;5408651;32;35266;-73
2023/06/14 06:09:54;;;;;;;;;;;;;;;24.35;39.58;100222.81;5416838;32;35713;-67
2023/06/14 06:12:56;;;;;;;;;;;;;;;24.89;38.52;100213.69;5418893;32;34419;-71
2023/06/14 06:15:58;;;;;;;;;;;;;;;25.58;36.80;100217.38;5407164;32;37182;-65
2023/06/14 06:19:00;;;;;;;;;;;;;;;25.93;35.95;100219.87;5418103;32;34293;-67
2023/06/14 06:22:06;;;;;;;;;;;;;;;25.20;37.67;100215.97;5420336;32;34223;-66
2023/06/14 06:25:11;;;;;;;;;;;;;;;25.19;37.54;100215.12;5415749;32;34379;-78
2023/06/14 06:28:13;;;;;;;;;;;;;;;26.26;35.75;100208.34;5410427;32;35966;-70
2023/06/14 06:31:15;;;;;;;;;;;;;;;25.36;37.78;100208.81;5425326;32;34393;-67
2023/06/14 06:34:17;;;;;;;;;;;;;;;27.36;33.96;100209.72;5424042;32;36204;-69
2023/06/14 06:37:21;;;;;;;;;;;;;;;27.46;32.76;100211.22;5428253;32;34307;-68
2023/06/14 06:40:23;;;;;;;;;;;;;;;27.06;33.29;100216.72;5423952;32;35553;-71
2023/06/14 06:43:26;;;;;;;;;;;;;;;25.82;35.68;100212.09;5423233;32;34284;-64
2023/06/14 06:46:28;;;;;;;;;;;;;;;24.46;38.76;100218.03;5419664;32;34224;-65
2023/06/14 06:49:30;;;;;;;;;;;;;;;23.97;39.42;100211.28;5410862;32;34278;-65
2023/06/14 06:52:32;;;;;;;;;;;;;;;24.43;38.78;100217.50;5427567;32;35269;-62
2023/06/14 06:55:34;;;;;;;;;;;;;;;25.72;35.90;100210.53;5408807;32;34145;-70
2023/06/14 06:58:36;;;;;;;;;;;;;;;24.42;38.00;100216.66;5402662;32;34241;-66
2023/06/14 07:01:38;;;;;;;;;;;;;;;25.23;36.67;100216.47;5425127;32;34144;-74
2023/06/14 07:04:41;;;;;;;;;;;;;;;25.03;37.06;100217.66;5421833;32;35562;-73
2023/06/14 07:07:43;;;;;;;;;;;;;;;23.93;39.43;100216.09;5371582;32;1062560;-68
2023/06/14 07:10:45;;;;;;;;;;;;;;;23.56;40.31;100218.78;5424557;32;34447;-70
2023/06/14 07:13:47;;;;;;;;;;;;;;;23.23;40.29;100194.19;5421443;32;36028;-69
2023/06/14 07:16:49;;;;;;;;;;;;;;;23.08;41.59;100217.09;5422207;32;34386;-65
2023/06/14 07:19:51;;;;;;;;;;;;;;;23.64;40.56;100220.78;5421218;32;34092;-65
2023/06/14 07:22:53;;;;;;;;;;;;;;;23.76;40.17;100220.44;5406137;32;34634;-65
2023/06/14 07:25:55;;;;;;;;;;;;;;;23.28;41.12;100225.94;5421691;32;36830;-70
2023/06/14 07:28:57;;;;;;;;;;;;;;;24.90;37.24;100214.53;5419982;32;33134;-65
2023/06/14 07:31:59;;;;;;;;;;;;;;;23.94;39.21;100219.63;5422544;32;34331;-68
2023/06/14 07:35:01;;;;;;;;;;;;;;;22.97;40.74;100202.00;5423264;32;33162;-67
2023/06/14 07:38:03;;;;;;;;;;;;;;;24.12;38.20;100215.12;5421208;32;35216;-68
2023/06/14 07:41:05;;;;;;;;;;;;;;;24.33;36.98;100225.59;5426263;32;34862;-70
2023/06/14 07:44:07;;;;;;;;;;;;;;;24.79;36.24;100224.53;5413194;32;34632;-66
2023/06/14 07:47:09;;;;;;;;;;;;;;;23.81;38.27;100232.53;5423799;32;35466;-66
2023/06/14 07:50:12;;;;;;;;;;;;;;;25.25;35.86;100233.31;5422701;32;35520;-67
2023/06/14 07:53:17;;;;;;;;;;;;;;;25.33;36.01;100236.06;5422651;32;36203;-64
2023/06/14 07:56:21;;;;;;;;;;;;;;;23.55;39.15;100233.19;5410462;32;34701;-64
2023/06/14 07:59:23;;;;;;;;;;;;;;;23.45;39.68;100237.75;5420411;32;33332;-69
2023/06/14 08:02:25;;;;;;;;;;;;;;;24.62;37.41;100236.16;5412104;32;34225;-64
2023/06/14 08:05:28;;;;;;;;;;;;;;;23.59;39.93;100233.75;5417439;32;34264;-70
2023/06/14 08:08:30;;;;;;;;;;;;;;;24.02;38.79;100225.94;5410371;32;35497;-65
2023/06/14 08:11:32;;;;;;;;;;;;;;;23.30;39.71;100234.66;5423016;32;36889;-69
2023/06/14 08:14:38;;;;;;;;;;;;;;;23.93;39.44;100239.41;5424642;32;34830;-68
2023/06/14 08:17:42;;;;;;;;;;;;;;;24.62;38.11;100238.84;5415663;32;34781;-70
2023/06/14 08:20:44;;;;;;;;;;;;;;;25.98;34.34;100232.88;5419454;32;34151;-70
2023/06/14 08:23:46;;;;;;;;;;;;;;;26.25;34.86;100230.91;5420295;32;34765;-73
2023/06/14 08:26:49;;;;;;;;;;;;;;;27.54;32.07;100227.37;5394310;32;34633;-71
2023/06/14 08:29:53;;;;;;;;;;;;;;;24.78;36.95;100228.22;5420826;32;35014;-63
2023/06/14 08:32:55;;;;;;;;;;;;;;;24.97;37.04;100226.34;5422581;32;34127;-70
2023/06/14 08:36:17;;;;;;;;;;;;;;;24.94;37.11;100235.59;5424185;32;33352;-64
2023/06/14 08:39:20;;;;;;;;;;;;;;;25.76;34.95;100228.91;5424167;32;34257;-67
2023/06/14 08:42:24;;;;;;;;;;;;;;;26.54;33.80;100238.59;5408887;32;35371;-65
2023/06/14 08:45:33;;;;;;;;;;;;;;;26.04;34.26;100242.16;5425847;32;35131;-63
2023/06/14 08:48:35;;;;;;;;;;;;;;;26.36;33.37;100241.38;5406822;32;34400;-68
2023/06/14 08:51:38;;;;;;;;;;;;;;;26.24;33.46;100246.25;5420058;32;34567;-68
2023/06/14 08:54:43;;;;;;;;;;;;;;;24.48;36.31;100259.03;5398687;32;35062;-63
2023/06/14 08:57:50;;;;;;;;;;;;;;;25.69;34.04;100254.75;5420571;32;35428;-65
2023/06/14 09:00:52;;;;;;;;;;;;;;;24.78;35.60;100255.09;5411470;32;34881;-65
2023/06/14 09:03:57;;;;;;;;;;;;;;;24.50;37.14;100273.12;5426588;32;34567;-71
2023/06/14 09:07:00;;;;;;;;;;;;;;;23.89;38.40;100272.88;5407284;32;37137;-64
2023/06/14 09:10:12;;;;;;;;;;;;;;;24.79;36.88;100272.06;5405950;32;35003;-65
2023/06/14 09:13:14;;;;;;;;;;;;;;;25.15;35.87;100274.75;5417569;32;35640;-69
2023/06/14 09:16:18;;;;;;;;;;;;;;;25.34;35.70;100267.31;5419739;32;34232;-68
2023/06/14 09:19:24;;;;;;;;;;;;;;;25.15;36.45;100270.22;5409198;32;35174;-67
2023/06/14 09:22:27;;;;;;;;;;;;;;;24.08;38.99;100278.16;5416229;32;35637;-69
2023/06/14 09:25:29;;;;;;;;;;;;;;;25.41;35.99;100274.75;5407637;32;34209;-68
2023/06/14 09:28:44;;;;;;;;;;;;;;;24.83;36.90;100268.91;5411152;32;45076;-69
2023/06/14 09:31:46;;;;;;;;;;;;;;;23.12;38.92;100276.62;5414861;32;35408;-67
2023/06/14 09:34:51;;;;;;;;;;;;;;;23.76;38.76;100268.72;5418402;32;34470;-68
2023/06/14 09:37:53;;;;;;;;;;;;;;;24.61;36.49;100258.66;5410938;32;34220;-68
2023/06/14 09:40:58;;;;;;;;;;;;;;;24.63;35.86;100267.37;5411531;32;34231;-69
2023/06/14 09:44:02;;;;;;;;;;;;;;;24.41;36.30;100265.13;5420267;32;33018;-67
2023/06/14 09:47:09;;;;;;;;;;;;;;;24.51;35.23;100256.03;5394456;32;34161;-65
2023/06/14 09:50:11;;;;;;;;;;;;;;;26.31;32.86;100249.12;5412596;32;35133;-68
2023/06/14 09:53:13;;;;;;;;;;;;;;;25.57;33.10;100250.66;5421238;32;35529;-67
2023/06/14 09:56:17;;;;;;;;;;;;;;;27.61;30.69;100242.88;5403701;32;34439;-68
2023/06/14 09:59:26;;;;;;;;;;;;;;;29.72;27.91;100237.03;5419121;32;34992;-67
2023/06/14 10:02:31;;;;;;;;;;;;;;;29.30;27.04;100231.19;5421882;32;35083;-66
2023/06/14 10:05:35;;;;;;;;;;;;;;;28.41;29.48;100231.94;5403286;32;34287;-66
2023/06/14 10:08:37;;;;;;;;;;;;;;;29.94;25.58;100225.22;5406793;32;35454;-67
2023/06/14 10:11:46;;;;;;;;;;;;;;;30.82;22.32;100231.44;5427077;32;35695;-63
2023/06/14 10:14:49;;;;;;;;;;;;;;;31.46;22.31;100217.75;5415371;32;35367;-66
2023/06/14 10:17:56;;;;;;;;;;;;;;;30.18;23.11;100230.34;5402743;32;34466;-67
2023/06/14 10:21:08;;;;;;;;;;;;;;;31.14;22.29;100219.16;5425275;32;34489;-70
2023/06/14 10:24:10;;;;;;;;;;;;;;;29.36;25.00;100225.03;5401200;32;34210;-67
2023/06/14 10:27:13;;;;;;;;;;;;;;;33.26;21.17;100218.03;5398582;32;34159;-71
2023/06/14 10:30:15;;;;;;;;;;;;;;;34.08;19.46;100210.28;5410628;32;34292;-68
2023/06/14 10:33:18;;;;;;;;;;;;;;;32.52;20.49;100201.88;5417786;32;34229;-68
2023/06/14 10:36:22;;;;;;;;;;;;;;;31.68;21.69;100204.91;5422699;32;34387;-74
2023/06/14 10:39:25;;;;;;;;;;;;;;;31.30;22.76;100190.91;5419199;32;34541;-78
2023/06/14 10:42:33;;;;;;;;;;;;;;;34.48;19.40;100192.63;5405263;32;34372;-68
2023/06/14 10:45:35;;;;;;;;;;;;;;;31.16;22.98;100204.34;5423673;32;34126;-68
2023/06/14 10:48:41;;;;;;;;;;;;;;;32.11;22.39;100189.22;5414495;32;34726;-67
2023/06/14 10:51:47;;;;;;;;;;;;;;;30.68;21.89;100211.50;5422540;32;34441;-68
2023/06/14 10:55:10;;;;;;;;;;;;;;;31.56;21.14;100201.94;5391478;32;34321;-67
2023/06/14 10:58:13;;;;;;;;;;;;;;;31.23;20.52;100202.53;5420615;32;34218;-68
2023/06/14 11:01:15;;;;;;;;;;;;;;;32.11;20.05;100199.25;5408344;32;32226;-67
2023/06/14 11:04:20;;;;;;;;;;;;;;;30.69;21.85;100188.75;5408449;32;34287;-66
2023/06/14 11:07:22;;;;;;;;;;;;;;;30.43;22.11;100189.31;5412643;32;35922;-66
2023/06/14 11:10:45;;;;;;;;;;;;;;;28.99;23.58;100200.75;5420498;32;34772;-78
2023/06/14 11:13:47;;;;;;;;;;;;;;;28.67;24.21;100193.72;5407034;32;34172;-70
2023/06/14 11:16:49;;;;;;;;;;;;;;;28.38;25.35;100186.34;5405352;32;35384;-72
2023/06/14 11:20:07;;;;;;;;;;;;;;;27.09;26.69;100192.09;5411043;32;34231;-68
2023/06/14 11:23:09;;;;;;;;;;;;;;;29.09;23.98;100168.84;5406341;32;34317;-73
2023/06/14 11:26:10;;;;;;;;;;;;;;;30.12;23.06;100170.66;5405593;32;33942;-70
2023/06/14 11:29:15;;;;;;;;;;;;;;;28.98;24.51;100185.50;5421595;32;32839;-70
2023/06/14 11:32:20;;;;;;;;;;;;;;;27.89;25.87;100189.34;5402778;32;34366;-68
2023/06/14 11:35:25;;;;;;;;;;;;;;;28.32;25.74;100182.50;5419304;32;34221;-69
2023/06/14 11:38:28;;;;;;;;;;;;;;;27.44;26.88;100175.47;5418309;32;35288;-70
2023/06/14 11:41:39;;;;;;;;;;;;;;;27.43;26.82;100181.88;5418189;32;34503;-73
2023/06/14 11:44:41;;;;;;;;;;;;;;;28.47;25.45;100194.22;5411455;32;35262;-72
2023/06/14 11:47:43;;;;;;;;;;;;;;;28.42;25.41;100191.22;5416311;32;35578;-65
2023/06/14 11:50:49;;;;;;;;;;;;;;;27.74;26.60;100191.91;5401502;32;33320;-70
2023/06/14 11:53:53;;;;;;;;;;;;;;;26.82;29.33;100190.56;5423479;32;35822;-69
2023/06/14 11:56:55;;;;;;;;;;;;;;;26.36;30.19;100185.66;5420299;32;35849;-68
2023/06/14 11:59:57;;;;;;;;;;;;;;;25.97;30.67;100187.25;5409966;32;34551;-65
2023/06/14 12:02:59;;;;;;;;;;;;;;;27.63;29.21;100184.16;5402988;32;34241;-64
2023/06/14 12:06:02;;;;;;;;;;;;;;;26.06;31.87;100191.66;5391812;32;34317;-70
2023/06/14 12:09:12;;;;;;;;;;;;;;;26.67;31.34;100191.25;5420164;32;35615;-69
2023/06/14 12:12:15;;;;;;;;;;;;;;;26.96;31.25;100201.50;5407202;32;35403;-69
2023/06/14 12:15:17;;;;;;;;;;;;;;;25.28;33.61;100206.09;5419892;32;33979;-70
2023/06/14 12:18:19;;;;;;;;;;;;;;;26.62;31.59;100199.00;5416043;32;35607;-69
2023/06/14 12:21:23;;;;;;;;;;;;;;;24.98;34.50;100212.75;5406850;32;34379;-68
2023/06/14 12:24:27;;;;;;;;;;;;;;;25.51;33.94;100197.50;5421829;32;35472;-71
2023/06/14 12:27:30;;;;;;;;;;;;;;;25.30;34.16;100200.53;5427319;32;36801;-76
2023/06/14 12:30:33;;;;;;;;;;;;;;;25.22;33.79;100206.72;5408820;32;34214;-66
2023/06/14 12:33:35;;;;;;;;;;;;;;;24.91;33.97;100200.09;5403671;32;34116;-73
2023/06/14 12:36:44;;;;;;;;;;;;;;;24.43;34.75;100201.38;5423521;32;34069;-65
2023/06/14 12:39:47;;;;;;;;;;;;;;;25.05;33.83;100207.63;5402978;32;35913;-69
2023/06/14 12:42:52;;;;;;;;;;;;;;;25.01;33.42;100207.06;5390722;32;35387;-75
2023/06/14 12:45:54;;;;;;;;;;;;;;;26.23;32.04;100192.53;5419735;32;34272;-69
2023/06/14 12:48:56;;;;;;;;;;;;;;;26.38;31.42;100190.88;5424792;32;35538;-70
2023/06/14 12:51:57;;;;;;;;;;;;;;;25.19;32.65;100211.59;5420884;32;34159;-64
2023/06/14 12:54:59;;;;;;;;;;;;;;;25.67;31.84;100203.75;5420472;32;34772;-72
2023/06/14 12:58:01;;;;;;;;;;;;;;;26.00;30.94;100197.69;5421772;32;33012;-69
2023/06/14 13:01:04;;;;;;;;;;;;;;;24.70;32.94;100197.75;5410481;32;35839;-70
2023/06/14 13:04:06;;;;;;;;;;;;;;;25.24;32.14;100188.56;5405321;32;34355;-81
2023/06/14 13:07:10;;;;;;;;;;;;;;;26.20;30.61;100183.75;5422054;32;34289;-65
2023/06/14 13:10:12;;;;;;;;;;;;;;;26.69;29.91;100186.53;5409585;32;34495;-68
2023/06/14 13:13:14;;;;;;;;;;;;;;;25.87;30.98;100185.53;5406386;32;34663;-73
2023/06/14 13:16:18;;;;;;;;;;;;;;;25.70;31.09;100167.62;5407735;32;35803;-66
2023/06/14 13:19:21;;;;;;;;;;;;;;;25.49;30.65;100157.25;5419051;32;33378;-72
2023/06/14 13:22:23;;;;;;;;;;;;;;;26.34;29.87;100179.59;5398637;32;34215;-71
2023/06/14 13:25:25;;;;;;;;;;;;;;;26.22;29.69;100180.91;5421081;32;34168;-74
2023/06/14 13:28:27;;;;;;;;;;;;;;;25.79;30.29;100185.50;5420059;32;34414;-72
2023/06/14 13:31:29;;;;;;;;;;;;;;;25.60;30.74;100178.50;5422880;32;34273;-71
2023/06/14 13:34:31;;;;;;;;;;;;;;;25.62;30.46;100181.03;5424129;32;34364;-73
2023/06/14 13:37:33;;;;;;;;;;;;;;;25.41;30.25;100186.00;5414703;32;34758;-75
2023/06/14 13:40:36;;;;;;;;;;;;;;;25.74;29.83;100170.84;5415288;32;35470;-66
2023/06/14 13:43:38;;;;;;;;;;;;;;;25.26;30.25;100170.44;5412649;32;35653;-69
2023/06/14 13:46:40;;;;;;;;;;;;;;;26.51;28.85;100168.84;5420015;32;34352;-68
2023/06/14 13:49:42;;;;;;;;;;;;;;;25.56;29.69;100170.91;5425033;32;34401;-71
2023/06/14 13:52:44;;;;;;;;;;;;;;;26.25;29.18;100163.56;5424168;32;34451;-64
2023/06/14 13:55:47;;;;;;;;;;;;;;;27.55;28.01;100166.16;5417006;32;34933;-73
2023/06/14 13:58:54;;;;;;;;;;;;;;;27.04;27.82;100160.19;5423504;32;35537;-72
2023/06/14 14:01:56;;;;;;;;;;;;;;;26.90;28.24;100163.59;5417390;32;35439;-66
2023/06/14 14:04:59;;;;;;;;;;;;;;;26.23;29.12;100168.28;5417024;32;35868;-87
2023/06/14 14:08:02;;;;;;;;;;;;;;;27.21;28.13;100164.56;5415288;32;34692;-68
2023/06/14 14:11:04;;;;;;;;;;;;;;;26.36;28.36;100174.88;5413031;32;34329;-67
2023/06/14 14:14:06;;;;;;;;;;;;;;;25.97;29.11;100160.34;5427500;32;36100;-67
2023/06/14 14:17:09;;;;;;;;;;;;;;;25.96;28.86;100161.34;5416539;32;34883;-64
2023/06/14 14:20:15;;;;;;;;;;;;;;;26.69;28.27;100161.44;5422623;32;34884;-70
2023/06/14 14:23:19;;;;;;;;;;;;;;;26.46;28.58;100167.47;5399565;32;34396;-80
2023/06/14 14:26:21;;;;;;;;;;;;;;;26.82;28.01;100166.31;5418332;32;35598;-67
2023/06/14 14:29:28;;;;;;;;;;;;;;;26.76;27.99;100167.00;5420207;32;33968;-68
2023/06/14 14:32:31;;;;;;;;;;;;;;;25.38;28.79;100165.66;5415212;32;33909;-76
2023/06/14 14:35:34;;;;;;;;;;;;;;;26.43;28.10;100167.84;5391422;32;34370;-80
2023/06/14 14:38:36;;;;;;;;;;;;;;;25.91;27.75;100168.06;5402037;32;34276;-69
2023/06/14 14:41:39;;;;;;;;;;;;;;;25.82;28.20;100166.31;5418040;32;34262;-67
2023/06/14 14:44:44;;;;;;;;;;;;;;;26.13;27.67;100165.75;5430053;32;34138;-84
2023/06/14 14:47:46;;;;;;;;;;;;;;;25.47;29.02;100161.97;5420206;32;33811;-71
2023/06/14 14:50:48;;;;;;;;;;;;;;;26.23;28.36;100166.44;5429161;32;35964;-69
2023/06/14 14:53:51;;;;;;;;;;;;;;;25.86;27.67;100170.41;5407537;32;34252;-72
2023/06/14 14:56:56;;;;;;;;;;;;;;;26.27;27.19;100175.84;5425419;32;33394;-69
2023/06/14 15:00:00;;;;;;;;;;;;;;;25.84;27.76;100158.97;5421310;32;35758;-65
2023/06/14 15:03:02;;;;;;;;;;;;;;;25.62;27.72;100170.28;5417399;32;34164;-67
2023/06/14 15:06:04;;;;;;;;;;;;;;;26.19;27.11;100168.59;5398100;32;34346;-70
2023/06/14 15:09:06;;;;;;;;;;;;;;;26.39;26.64;100163.75;5421336;32;34414;-73
2023/06/14 15:12:10;;;;;;;;;;;;;;;26.51;26.69;100155.37;5422955;32;34124;-65
2023/06/14 15:15:12;;;;;;;;;;;;;;;25.72;27.07;100146.78;5416997;32;35853;-64
2023/06/14 15:18:15;;;;;;;;;;;;;;;25.87;27.56;100153.22;5428819;32;34305;-64
2023/06/14 15:21:18;;;;;;;;;;;;;;;25.84;26.73;100155.41;5422045;32;35092;-66
2023/06/14 15:24:20;;;;;;;;;;;;;;;26.43;26.16;100161.59;5425743;32;35851;-69
2023/06/14 15:27:42;;;;;;;;;;;;;;;25.92;25.91;100148.19;5420008;32;35487;-67
2023/06/14 15:30:44;;;;;;;;;;;;;;;26.37;26.02;100148.78;5421295;32;34309;-69
2023/06/14 15:33:46;;;;;;;;;;;;;;;25.82;27.92;100131.34;5415375;32;34150;-69
2023/06/14 15:36:48;;;;;;;;;;;;;;;24.95;30.58;100153.94;5421330;32;35426;-67
2023/06/14 15:39:50;;;;;;;;;;;;;;;25.21;30.58;100150.41;5410602;32;35728;-67